Pine Valley, California
Current Conditions -  °F | °C
As of 2:53 AM on Friday 24 Oct 2014 (Local Time) from KRNM Reporting Station
Clear Clear  
Wind Chill: 53°   Ceiling: Unl
Heat Index: 53°   Visibility: 10mi
Dew Point: 37°   Wind: 0mph
Humidity: 55%   Direction: NA
Pressure: 30"   Gusts: NA
Location:  32.86°N, 116.5°W
Report Text: KRNM 240953Z AUTO 00000KT 10SM CLR 12/03 A3000 RMK AO2 SLP144 T01170028 TSNO
Loading
Personal Weather Stations






























Interactive Weather Map
Tropical Storm Tracking
New forecast layout! Learn more

10-Day Weather Forecast

Advertisements
Track Severe Weather on mobile